createdAt,value
2018-11-29T00:01:16.333Z,0.10
2018-11-29T00:06:21.049Z,0.06
2018-11-29T00:11:35.773Z,0.09
2018-11-29T00:16:40.777Z,0.11
2018-11-29T00:21:50.113Z,0.11
2018-11-29T00:26:57.274Z,0.10
2018-11-29T00:32:06.995Z,0.10
2018-11-29T00:37:12.001Z,0.10
2018-11-29T00:42:16.693Z,0.15
2018-11-29T00:47:25.203Z,0.15
2018-11-29T00:52:30.437Z,0.17
2018-11-29T01:03:07.600Z,0.24
2018-11-29T01:08:13.153Z,0.32
2018-11-29T01:13:18.720Z,0.32
2018-11-29T01:23:55.013Z,0.34
2018-11-29T01:29:00.201Z,0.31
2018-11-29T01:34:05.044Z,0.35
2018-11-29T01:39:10.509Z,0.30
2018-11-29T01:44:15.493Z,0.30
2018-11-29T01:49:21.808Z,0.30
2018-11-29T01:54:26.231Z,0.34
2018-11-29T01:59:31.161Z,0.38
2018-11-29T02:04:35.672Z,0.47
2018-11-29T02:09:40.404Z,0.42
2018-11-29T02:14:45.224Z,0.45
2018-11-29T02:19:49.899Z,0.45
2018-11-29T02:24:54.474Z,0.48
2018-11-29T02:30:21.529Z,0.47
2018-11-29T02:35:28.319Z,0.44
2018-11-29T02:40:46.409Z,0.47
2018-11-29T02:45:51.239Z,0.52
2018-11-29T02:50:56.012Z,0.50
2018-11-29T02:56:00.633Z,0.46
2018-11-29T03:01:27.717Z,0.55
2018-11-29T03:06:32.954Z,0.55
2018-11-29T03:11:37.289Z,0.55
2018-11-29T03:16:42.466Z,0.58
2018-11-29T03:21:47.698Z,0.54
2018-11-29T03:26:51.907Z,0.52
2018-11-29T03:31:56.131Z,0.48
2018-11-29T03:37:01.291Z,0.46
2018-11-29T03:47:38.690Z,0.46
2018-11-29T03:52:44.627Z,0.51
2018-11-29T03:57:54.409Z,0.44
2018-11-29T04:02:59.549Z,0.37
2018-11-29T04:08:05.169Z,0.40
2018-11-29T04:13:09.891Z,0.43
2018-11-29T04:18:19.689Z,0.43
2018-11-29T04:23:24.427Z,0.44
2018-11-29T04:28:51.392Z,0.48
2018-11-29T04:33:56.391Z,0.57
2018-11-29T04:39:08.219Z,0.72
2018-11-29T04:44:12.937Z,0.76
2018-11-29T04:49:17.577Z,0.81
2018-11-29T04:54:22.156Z,0.83
2018-11-29T04:59:27.201Z,0.86
2018-11-29T05:04:31.698Z,0.91
2018-11-29T05:09:36.257Z,0.97
2018-11-29T05:14:40.704Z,1.01
2018-11-29T05:19:45.555Z,1.03
2018-11-29T05:24:50.164Z,1.14
2018-11-29T05:29:55.078Z,1.16
2018-11-29T05:35:01.137Z,1.21
2018-11-29T05:40:09.639Z,1.24
2018-11-29T05:45:15.099Z,1.35
2018-11-29T05:50:25.863Z,1.35
2018-11-29T05:55:31.649Z,1.45
2018-11-29T06:00:36.712Z,1.50
2018-11-29T06:05:43.787Z,1.49
2018-11-29T06:10:48.925Z,1.43
2018-11-29T06:15:53.855Z,1.44
2018-11-29T06:21:00.426Z,1.53
2018-11-29T06:26:05.247Z,1.49
2018-11-29T06:31:10.269Z,1.44
2018-11-29T06:36:14.753Z,1.43
2018-11-29T06:41:19.616Z,1.40
2018-11-29T06:46:25.753Z,1.38
2018-11-29T06:51:29.737Z,1.35
2018-11-29T06:56:34.423Z,1.30
2018-11-29T07:01:40.811Z,1.32
2018-11-29T07:06:46.197Z,1.37
2018-11-29T07:11:50.947Z,1.38
2018-11-29T07:17:00.013Z,1.45
2018-11-29T07:22:04.459Z,1.48
2018-11-29T07:27:12.647Z,1.59
2018-11-29T07:32:18.158Z,1.66
2018-11-29T07:37:22.672Z,1.74
2018-11-29T07:42:27.085Z,1.78
2018-11-29T07:47:31.494Z,1.93
2018-11-29T07:52:36.351Z,1.99
2018-11-29T07:57:40.795Z,2.00
2018-11-29T08:02:45.323Z,2.01
2018-11-29T08:07:55.342Z,2.01
2018-11-29T08:13:00.209Z,2.15
2018-11-29T08:18:05.515Z,2.23
2018-11-29T08:23:11.380Z,2.30
2018-11-29T08:28:25.302Z,2.38
2018-11-29T08:33:30.177Z,2.42
2018-11-29T08:38:39.888Z,2.51
2018-11-29T08:43:44.315Z,2.61
2018-11-29T08:48:49.701Z,2.67
2018-11-29T08:53:55.756Z,2.73
2018-11-29T08:59:00.541Z,2.86
2018-11-29T09:04:05.530Z,3.06
2018-11-29T09:09:09.833Z,3.15
2018-11-29T09:14:15.058Z,3.28
2018-11-29T09:19:19.559Z,3.28
2018-11-29T09:24:24.258Z,3.36
2018-11-29T09:29:29.603Z,3.38
2018-11-29T09:34:34.905Z,3.42
2018-11-29T09:39:40.296Z,3.48
2018-11-29T09:44:45.947Z,3.61
2018-11-29T09:49:50.541Z,3.63
2018-11-29T09:54:55.390Z,3.72
2018-11-29T10:00:00.259Z,3.87
2018-11-29T10:05:05.413Z,4.02
2018-11-29T10:10:12.476Z,4.22
2018-11-29T10:15:17.862Z,4.49
2018-11-29T10:20:22.584Z,4.61
2018-11-29T10:25:27.166Z,4.79
2018-11-29T10:30:36.237Z,4.98
2018-11-29T10:35:40.915Z,5.06
2018-11-29T10:40:46.074Z,5.10
2018-11-29T10:45:50.589Z,5.22
2018-11-29T10:50:54.832Z,5.40
2018-11-29T10:55:59.424Z,5.61
2018-11-29T11:01:09.581Z,5.63
2018-11-29T11:06:14.207Z,5.88
2018-11-29T11:11:21.177Z,5.91
2018-11-29T11:16:26.396Z,6.19
2018-11-29T11:21:36.189Z,6.75
2018-11-29T11:26:40.738Z,7.73
2018-11-29T11:31:46.618Z,8.18
2018-11-29T11:36:51.037Z,8.81
2018-11-29T11:41:55.981Z,8.93
2018-11-29T11:47:00.532Z,8.96
2018-11-29T11:52:05.442Z,8.71
2018-11-29T11:57:09.844Z,8.37
2018-11-29T12:02:14.258Z,8.26
2018-11-29T12:07:19.663Z,8.04
2018-11-29T12:12:25.921Z,7.95
2018-11-29T12:17:31.194Z,7.93
2018-11-29T12:22:35.886Z,8.18
2018-11-29T12:27:40.374Z,8.26
2018-11-29T12:32:47.590Z,8.16
2018-11-29T12:37:53.323Z,7.89
2018-11-29T12:42:57.268Z,7.71
2018-11-29T12:48:01.627Z,7.64
2018-11-29T12:53:06.566Z,7.75
2018-11-29T12:58:10.987Z,7.68
2018-11-29T13:03:15.616Z,7.48
2018-11-29T13:08:23.007Z,7.38
2018-11-29T13:13:27.913Z,7.29
2018-11-29T13:18:33.188Z,7.14
2018-11-29T13:23:37.884Z,7.05
2018-11-29T13:28:42.581Z,6.99
2018-11-29T13:33:47.564Z,6.87
2018-11-29T13:38:52.795Z,6.75
2018-11-29T13:43:57.937Z,6.72
2018-11-29T13:49:03.480Z,6.66
2018-11-29T13:54:07.864Z,6.67
2018-11-29T13:59:18.072Z,6.62
2018-11-29T14:04:22.633Z,6.66
2018-11-29T14:09:26.956Z,6.69
2018-11-29T14:14:32.414Z,6.67
2018-11-29T14:19:36.680Z,6.49
2018-11-29T14:24:40.981Z,6.29
2018-11-29T14:29:45.912Z,6.11
2018-11-29T14:34:53.973Z,6.01
2018-11-29T14:39:58.725Z,5.91
2018-11-29T14:45:03.152Z,5.78
2018-11-29T14:50:16.283Z,5.64
2018-11-29T14:55:21.732Z,5.55
2018-11-29T15:00:30.922Z,5.49
2018-11-29T15:05:35.408Z,5.46
2018-11-29T15:10:39.824Z,5.37
2018-11-29T15:15:44.817Z,5.30
2018-11-29T15:20:50.096Z,5.23
2018-11-29T15:25:55.812Z,5.19
2018-11-29T15:31:00.495Z,5.24
2018-11-29T15:36:05.099Z,5.30
2018-11-29T15:41:09.595Z,5.21
2018-11-29T15:46:14.087Z,5.16
2018-11-29T15:51:23.467Z,5.08
2018-11-29T15:56:28.104Z,5.03
2018-11-29T16:01:32.764Z,4.99
2018-11-29T16:06:41.212Z,4.89
2018-11-29T16:11:45.871Z,4.80
2018-11-29T16:16:50.309Z,4.78
2018-11-29T16:21:55.042Z,4.82
2018-11-29T16:27:00.445Z,4.82
2018-11-29T16:32:14.201Z,4.75
2018-11-29T16:37:19.134Z,4.74
2018-11-29T16:42:28.896Z,4.71
2018-11-29T16:47:33.453Z,4.70
2018-11-29T16:52:38.194Z,4.67
2018-11-29T16:57:48.559Z,4.66
2018-11-29T17:02:53.220Z,4.61
2018-11-29T17:07:58.535Z,4.54
2018-11-29T17:13:05.247Z,4.39
2018-11-29T17:18:09.795Z,4.32
2018-11-29T17:23:15.558Z,4.27
2018-11-29T17:28:21.422Z,4.28
2018-11-29T17:33:27.198Z,4.25
2018-11-29T17:38:45.836Z,4.33
2018-11-29T17:43:50.606Z,4.25
2018-11-29T17:49:01.572Z,4.27
2018-11-29T17:54:06.944Z,4.28
2018-11-29T17:59:12.610Z,4.25
2018-11-29T18:04:17.589Z,4.21
2018-11-29T18:09:27.531Z,4.14
2018-11-29T18:14:32.194Z,4.05
2018-11-29T18:19:47.478Z,4.04
2018-11-29T18:24:52.196Z,3.97
2018-11-29T18:29:56.678Z,3.99
2018-11-29T18:35:04.405Z,3.92
2018-11-29T18:40:14.559Z,3.94
2018-11-29T18:45:29.417Z,3.93
2018-11-29T18:50:40.930Z,3.94
2018-11-29T18:55:46.937Z,3.97
2018-11-29T19:01:05.472Z,3.91
2018-11-29T19:06:10.311Z,3.89
2018-11-29T19:11:14.927Z,3.85
2018-11-29T19:16:20.411Z,3.82
2018-11-29T19:21:25.899Z,3.80
2018-11-29T19:26:31.425Z,3.79
2018-11-29T19:31:38.024Z,3.85
2018-11-29T19:36:43.522Z,3.84
2018-11-29T19:41:50.682Z,3.93
2018-11-29T19:52:09.429Z,3.98
2018-11-29T19:57:13.680Z,3.91
2018-11-29T20:02:18.052Z,3.81
2018-11-29T20:07:22.897Z,3.77
2018-11-29T20:12:28.000Z,3.78
2018-11-29T20:17:32.538Z,3.78
2018-11-29T20:22:37.323Z,3.80
2018-11-29T20:27:43.944Z,3.80
2018-11-29T20:32:49.410Z,3.76
2018-11-29T20:37:55.331Z,3.73
2018-11-29T20:43:00.949Z,3.76
2018-11-29T20:48:17.157Z,3.76
2018-11-29T20:53:24.670Z,3.81
2018-11-29T20:58:30.539Z,3.75
2018-11-29T21:08:55.939Z,3.63
2018-11-29T21:14:00.946Z,3.70
2018-11-29T21:19:05.812Z,3.74
2018-11-29T21:24:10.288Z,3.66
2018-11-29T21:29:15.301Z,3.66
2018-11-29T21:34:20.043Z,3.59
2018-11-29T21:39:24.691Z,3.55
2018-11-29T21:44:29.235Z,3.57
2018-11-29T21:49:34.255Z,3.63
2018-11-29T21:54:39.514Z,3.61
2018-11-29T21:59:44.482Z,3.59
2018-11-29T22:04:50.243Z,3.55
2018-11-29T22:09:55.366Z,3.52
2018-11-29T22:15:01.024Z,3.70
2018-11-29T22:20:05.976Z,3.61
2018-11-29T22:25:11.747Z,3.63
2018-11-29T22:30:17.388Z,3.69
2018-11-29T22:35:24.340Z,3.74
2018-11-29T22:40:40.259Z,3.82
2018-11-29T22:45:46.039Z,3.84
2018-11-29T22:50:56.591Z,3.84
2018-11-29T22:56:03.038Z,3.80
2018-11-29T23:01:13.049Z,3.85
2018-11-29T23:06:17.461Z,3.80
2018-11-29T23:11:26.896Z,3.75
2018-11-29T23:16:32.333Z,3.80
2018-11-29T23:21:37.255Z,3.78
2018-11-29T23:26:41.808Z,3.69
2018-11-29T23:31:46.242Z,3.61
2018-11-29T23:36:50.994Z,3.61
2018-11-29T23:41:56.274Z,3.63
2018-11-29T23:47:00.837Z,3.62
2018-11-29T23:52:10.538Z,3.63
2018-11-29T23:57:15.225Z,3.62
